sensor_id;sensor_type;location;lat;lon;timestamp;P1;durP1;ratioP1;P2;durP2;ratioP2
15573;SDS011;7888;46.748;8.102;2022-11-30T00:01:16;1.90;;;1.80;;
15573;SDS011;7888;46.748;8.102;2022-11-30T00:03:45;2.13;;;1.90;;
15573;SDS011;7888;46.748;8.102;2022-11-30T00:06:13;2.10;;;1.73;;
15573;SDS011;7888;46.748;8.102;2022-11-30T00:08:41;1.60;;;1.50;;
15573;SDS011;7888;46.748;8.102;2022-11-30T00:11:14;1.40;;;1.30;;
15573;SDS011;7888;46.748;8.102;2022-11-30T00:13:42;1.60;;;1.50;;
15573;SDS011;7888;46.748;8.102;2022-11-30T00:16:08;2.80;;;1.80;;
15573;SDS011;7888;46.748;8.102;2022-11-30T00:18:35;1.60;;;1.50;;
15573;SDS011;7888;46.748;8.102;2022-11-30T00:21:03;1.63;;;1.53;;
15573;SDS011;7888;46.748;8.102;2022-11-30T00:23:36;1.67;;;1.53;;
15573;SDS011;7888;46.748;8.102;2022-11-30T00:26:05;1.83;;;1.53;;
15573;SDS011;7888;46.748;8.102;2022-11-30T00:28:34;2.13;;;1.57;;
15573;SDS011;7888;46.748;8.102;2022-11-30T00:31:02;1.60;;;1.50;;
15573;SDS011;7888;46.748;8.102;2022-11-30T00:33:31;1.70;;;1.60;;
15573;SDS011;7888;46.748;8.102;2022-11-30T00:36:00;1.87;;;1.73;;
15573;SDS011;7888;46.748;8.102;2022-11-30T00:38:30;2.10;;;1.73;;
15573;SDS011;7888;46.748;8.102;2022-11-30T00:40:57;1.67;;;1.57;;
15573;SDS011;7888;46.748;8.102;2022-11-30T00:43:23;1.93;;;1.77;;
15573;SDS011;7888;46.748;8.102;2022-11-30T00:45:49;2.43;;;2.13;;
15573;SDS011;7888;46.748;8.102;2022-11-30T00:48:14;2.87;;;2.00;;
15573;SDS011;7888;46.748;8.102;2022-11-30T00:50:40;2.33;;;2.10;;
15573;SDS011;7888;46.748;8.102;2022-11-30T00:53:06;2.30;;;2.10;;
15573;SDS011;7888;46.748;8.102;2022-11-30T00:55:32;2.73;;;2.00;;
15573;SDS011;7888;46.748;8.102;2022-11-30T00:57:58;1.80;;;1.70;;
15573;SDS011;7888;46.748;8.102;2022-11-30T01:00:25;2.00;;;1.83;;
15573;SDS011;7888;46.748;8.102;2022-11-30T01:02:55;2.10;;;1.90;;
15573;SDS011;7888;46.748;8.102;2022-11-30T01:05:23;2.03;;;1.93;;
15573;SDS011;7888;46.748;8.102;2022-11-30T01:07:49;2.00;;;1.80;;
15573;SDS011;7888;46.748;8.102;2022-11-30T01:10:16;3.57;;;2.00;;
15573;SDS011;7888;46.748;8.102;2022-11-30T01:12:42;2.00;;;1.83;;
15573;SDS011;7888;46.748;8.102;2022-11-30T01:15:08;2.10;;;1.90;;
15573;SDS011;7888;46.748;8.102;2022-11-30T01:17:34;2.33;;;1.90;;
15573;SDS011;7888;46.748;8.102;2022-11-30T01:20:00;2.23;;;2.00;;
15573;SDS011;7888;46.748;8.102;2022-11-30T01:22:26;1.90;;;1.80;;
15573;SDS011;7888;46.748;8.102;2022-11-30T01:24:52;1.97;;;1.87;;
15573;SDS011;7888;46.748;8.102;2022-11-30T01:27:18;1.97;;;1.77;;
15573;SDS011;7888;46.748;8.102;2022-11-30T01:29:44;2.67;;;1.93;;
15573;SDS011;7888;46.748;8.102;2022-11-30T01:32:10;1.90;;;1.70;;
15573;SDS011;7888;46.748;8.102;2022-11-30T01:34:35;1.97;;;1.77;;
15573;SDS011;7888;46.748;8.102;2022-11-30T01:37:01;2.27;;;2.07;;
15573;SDS011;7888;46.748;8.102;2022-11-30T01:39:27;1.83;;;1.67;;
15573;SDS011;7888;46.748;8.102;2022-11-30T01:41:53;2.27;;;2.07;;
15573;SDS011;7888;46.748;8.102;2022-11-30T01:49:37;1.57;;;1.40;;
15573;SDS011;7888;46.748;8.102;2022-11-30T01:52:14;1.50;;;1.40;;
15573;SDS011;7888;46.748;8.102;2022-11-30T01:54:57;1.50;;;1.40;;
15573;SDS011;7888;46.748;8.102;2022-11-30T01:57:46;1.80;;;1.70;;
15573;SDS011;7888;46.748;8.102;2022-11-30T02:00:30;1.70;;;1.53;;
15573;SDS011;7888;46.748;8.102;2022-11-30T02:03:01;1.83;;;1.73;;
15573;SDS011;7888;46.748;8.102;2022-11-30T02:05:35;1.50;;;1.40;;
15573;SDS011;7888;46.748;8.102;2022-11-30T02:08:04;1.50;;;1.40;;
15573;SDS011;7888;46.748;8.102;2022-11-30T02:10:34;1.90;;;1.80;;
15573;SDS011;7888;46.748;8.102;2022-11-30T02:31:01;1.57;;;1.33;;
15573;SDS011;7888;46.748;8.102;2022-11-30T02:33:32;1.87;;;1.60;;
15573;SDS011;7888;46.748;8.102;2022-11-30T02:35:59;2.30;;;1.10;;
15573;SDS011;7888;46.748;8.102;2022-11-30T02:38:28;2.77;;;1.40;;
15573;SDS011;7888;46.748;8.102;2022-11-30T02:40:55;1.47;;;1.37;;
15573;SDS011;7888;46.748;8.102;2022-11-30T02:43:21;1.83;;;1.70;;
15573;SDS011;7888;46.748;8.102;2022-11-30T02:49:03;1.40;;;1.30;;
15573;SDS011;7888;46.748;8.102;2022-11-30T02:51:56;1.33;;;1.23;;
15573;SDS011;7888;46.748;8.102;2022-11-30T02:54:25;1.77;;;1.67;;
15573;SDS011;7888;46.748;8.102;2022-11-30T02:56:51;1.60;;;1.30;;
15573;SDS011;7888;46.748;8.102;2022-11-30T02:59:16;1.50;;;1.40;;
15573;SDS011;7888;46.748;8.102;2022-11-30T03:01:43;2.03;;;1.50;;
15573;SDS011;7888;46.748;8.102;2022-11-30T03:04:09;1.70;;;1.60;;
15573;SDS011;7888;46.748;8.102;2022-11-30T03:06:35;1.80;;;1.40;;
15573;SDS011;7888;46.748;8.102;2022-11-30T03:09:01;1.50;;;1.40;;
15573;SDS011;7888;46.748;8.102;2022-11-30T03:11:27;1.73;;;1.63;;
15573;SDS011;7888;46.748;8.102;2022-11-30T03:13:53;1.83;;;1.60;;
15573;SDS011;7888;46.748;8.102;2022-11-30T03:16:19;1.67;;;1.57;;
15573;SDS011;7888;46.748;8.102;2022-11-30T03:18:45;2.23;;;2.03;;
15573;SDS011;7888;46.748;8.102;2022-11-30T03:21:11;1.97;;;1.87;;
15573;SDS011;7888;46.748;8.102;2022-11-30T03:23:37;1.60;;;1.50;;
15573;SDS011;7888;46.748;8.102;2022-11-30T03:26:05;1.87;;;1.70;;
15573;SDS011;7888;46.748;8.102;2022-11-30T03:28:33;1.60;;;1.50;;
15573;SDS011;7888;46.748;8.102;2022-11-30T03:31:01;1.50;;;1.40;;
15573;SDS011;7888;46.748;8.102;2022-11-30T03:33:27;1.53;;;1.27;;
15573;SDS011;7888;46.748;8.102;2022-11-30T03:36:03;1.53;;;1.23;;
15573;SDS011;7888;46.748;8.102;2022-11-30T03:38:31;1.37;;;1.27;;
15573;SDS011;7888;46.748;8.102;2022-11-30T03:40:58;1.67;;;1.20;;
15573;SDS011;7888;46.748;8.102;2022-11-30T03:43:38;1.13;;;1.03;;
15573;SDS011;7888;46.748;8.102;2022-11-30T03:46:04;1.73;;;1.43;;
15573;SDS011;7888;46.748;8.102;2022-11-30T03:48:30;1.47;;;1.37;;
15573;SDS011;7888;46.748;8.102;2022-11-30T03:50:57;1.33;;;1.23;;
15573;SDS011;7888;46.748;8.102;2022-11-30T03:53:23;1.50;;;1.20;;
15573;SDS011;7888;46.748;8.102;2022-11-30T03:55:53;0.80;;;0.80;;
15573;SDS011;7888;46.748;8.102;2022-11-30T03:58:22;0.67;;;0.60;;
15573;SDS011;7888;46.748;8.102;2022-11-30T04:00:49;0.60;;;0.60;;
15573;SDS011;7888;46.748;8.102;2022-11-30T04:03:22;0.93;;;0.50;;
15573;SDS011;7888;46.748;8.102;2022-11-30T04:05:48;0.60;;;0.60;;
15573;SDS011;7888;46.748;8.102;2022-11-30T04:08:13;0.80;;;0.73;;
15573;SDS011;7888;46.748;8.102;2022-11-30T04:10:39;0.57;;;0.57;;
15573;SDS011;7888;46.748;8.102;2022-11-30T04:13:05;0.50;;;0.50;;
15573;SDS011;7888;46.748;8.102;2022-11-30T04:15:31;0.80;;;0.80;;
15573;SDS011;7888;46.748;8.102;2022-11-30T04:17:57;0.73;;;0.73;;
15573;SDS011;7888;46.748;8.102;2022-11-30T04:20:22;1.73;;;1.10;;
15573;SDS011;7888;46.748;8.102;2022-11-30T04:22:49;1.13;;;1.03;;
15573;SDS011;7888;46.748;8.102;2022-11-30T04:25:15;3.13;;;1.20;;
15573;SDS011;7888;46.748;8.102;2022-11-30T04:27:43;1.47;;;1.30;;
15573;SDS011;7888;46.748;8.102;2022-11-30T04:30:11;1.53;;;1.20;;
15573;SDS011;7888;46.748;8.102;2022-11-30T04:32:37;1.03;;;0.70;;
15573;SDS011;7888;46.748;8.102;2022-11-30T04:35:03;1.43;;;1.10;;
15573;SDS011;7888;46.748;8.102;2022-11-30T04:37:30;1.20;;;1.10;;
15573;SDS011;7888;46.748;8.102;2022-11-30T04:39:55;1.10;;;1.00;;
15573;SDS011;7888;46.748;8.102;2022-11-30T04:42:21;1.73;;;1.30;;
15573;SDS011;7888;46.748;8.102;2022-11-30T04:44:47;1.00;;;0.90;;
15573;SDS011;7888;46.748;8.102;2022-11-30T04:47:13;1.47;;;0.90;;
15573;SDS011;7888;46.748;8.102;2022-11-30T04:49:38;1.13;;;0.97;;
15573;SDS011;7888;46.748;8.102;2022-11-30T04:52:04;0.70;;;0.50;;
15573;SDS011;7888;46.748;8.102;2022-11-30T04:54:30;0.60;;;0.60;;
15573;SDS011;7888;46.748;8.102;2022-11-30T04:56:56;0.67;;;0.67;;
15573;SDS011;7888;46.748;8.102;2022-11-30T04:59:21;0.57;;;0.50;;
15573;SDS011;7888;46.748;8.102;2022-11-30T05:01:47;0.80;;;0.80;;
15573;SDS011;7888;46.748;8.102;2022-11-30T05:04:13;0.77;;;0.77;;
15573;SDS011;7888;46.748;8.102;2022-11-30T05:06:39;1.07;;;0.87;;
15573;SDS011;7888;46.748;8.102;2022-11-30T05:09:04;1.00;;;0.90;;
15573;SDS011;7888;46.748;8.102;2022-11-30T05:11:30;0.80;;;0.80;;
15573;SDS011;7888;46.748;8.102;2022-11-30T05:13:56;1.20;;;0.70;;
15573;SDS011;7888;46.748;8.102;2022-11-30T05:16:22;0.63;;;0.63;;
15573;SDS011;7888;46.748;8.102;2022-11-30T05:18:48;1.07;;;0.77;;
15573;SDS011;7888;46.748;8.102;2022-11-30T05:21:13;0.80;;;0.70;;
15573;SDS011;7888;46.748;8.102;2022-11-30T05:23:40;0.63;;;0.60;;
15573;SDS011;7888;46.748;8.102;2022-11-30T05:26:06;0.67;;;0.67;;
15573;SDS011;7888;46.748;8.102;2022-11-30T05:28:32;0.50;;;0.50;;
15573;SDS011;7888;46.748;8.102;2022-11-30T05:31:01;0.57;;;0.53;;
15573;SDS011;7888;46.748;8.102;2022-11-30T05:33:30;0.50;;;0.50;;
15573;SDS011;7888;46.748;8.102;2022-11-30T05:35:57;0.70;;;0.70;;
15573;SDS011;7888;46.748;8.102;2022-11-30T05:38:22;1.10;;;0.70;;
15573;SDS011;7888;46.748;8.102;2022-11-30T05:40:49;0.80;;;0.80;;
15573;SDS011;7888;46.748;8.102;2022-11-30T05:43:15;1.00;;;0.97;;
15573;SDS011;7888;46.748;8.102;2022-11-30T05:45:41;1.30;;;1.13;;
15573;SDS011;7888;46.748;8.102;2022-11-30T05:48:07;1.10;;;1.00;;
15573;SDS011;7888;46.748;8.102;2022-11-30T05:50:32;0.70;;;0.70;;
15573;SDS011;7888;46.748;8.102;2022-11-30T05:52:58;0.80;;;0.70;;
15573;SDS011;7888;46.748;8.102;2022-11-30T05:55:25;0.70;;;0.70;;
15573;SDS011;7888;46.748;8.102;2022-11-30T05:57:53;0.80;;;0.80;;
15573;SDS011;7888;46.748;8.102;2022-11-30T06:00:19;1.07;;;1.00;;
15573;SDS011;7888;46.748;8.102;2022-11-30T06:02:46;1.30;;;0.80;;
15573;SDS011;7888;46.748;8.102;2022-11-30T06:05:12;1.40;;;1.07;;
15573;SDS011;7888;46.748;8.102;2022-11-30T06:07:38;0.97;;;0.87;;
15573;SDS011;7888;46.748;8.102;2022-11-30T06:10:05;1.37;;;0.70;;
15573;SDS011;7888;46.748;8.102;2022-11-30T06:12:31;1.00;;;0.90;;
15573;SDS011;7888;46.748;8.102;2022-11-30T06:14:57;1.20;;;0.90;;
15573;SDS011;7888;46.748;8.102;2022-11-30T06:17:23;1.83;;;1.10;;
15573;SDS011;7888;46.748;8.102;2022-11-30T06:19:49;1.13;;;1.03;;
15573;SDS011;7888;46.748;8.102;2022-11-30T06:22:14;5.00;;;2.07;;
15573;SDS011;7888;46.748;8.102;2022-11-30T06:24:40;2.57;;;1.80;;
15573;SDS011;7888;46.748;8.102;2022-11-30T06:27:06;3.20;;;1.77;;
15573;SDS011;7888;46.748;8.102;2022-11-30T06:29:32;1.10;;;1.00;;
15573;SDS011;7888;46.748;8.102;2022-11-30T06:31:57;1.50;;;1.20;;
15573;SDS011;7888;46.748;8.102;2022-11-30T06:34:23;0.83;;;0.83;;
15573;SDS011;7888;46.748;8.102;2022-11-30T06:36:49;1.13;;;0.70;;
15573;SDS011;7888;46.748;8.102;2022-11-30T06:39:15;1.00;;;0.73;;
15573;SDS011;7888;46.748;8.102;2022-11-30T06:41:41;0.90;;;0.90;;
15573;SDS011;7888;46.748;8.102;2022-11-30T06:44:07;1.07;;;0.83;;
15573;SDS011;7888;46.748;8.102;2022-11-30T06:46:34;0.70;;;0.70;;
15573;SDS011;7888;46.748;8.102;2022-11-30T06:49:00;0.73;;;0.73;;
15573;SDS011;7888;46.748;8.102;2022-11-30T06:51:25;0.57;;;0.57;;
15573;SDS011;7888;46.748;8.102;2022-11-30T06:53:51;0.60;;;0.60;;
15573;SDS011;7888;46.748;8.102;2022-11-30T06:56:17;0.50;;;0.50;;
15573;SDS011;7888;46.748;8.102;2022-11-30T06:58:43;0.60;;;0.60;;
15573;SDS011;7888;46.748;8.102;2022-11-30T07:01:10;1.03;;;0.77;;
15573;SDS011;7888;46.748;8.102;2022-11-30T07:03:39;0.70;;;0.70;;
15573;SDS011;7888;46.748;8.102;2022-11-30T07:06:10;0.57;;;0.57;;
15573;SDS011;7888;46.748;8.102;2022-11-30T07:08:38;1.10;;;0.60;;
15573;SDS011;7888;46.748;8.102;2022-11-30T07:11:05;1.33;;;0.80;;
15573;SDS011;7888;46.748;8.102;2022-11-30T07:13:32;0.60;;;0.60;;
15573;SDS011;7888;46.748;8.102;2022-11-30T07:15:58;0.50;;;0.50;;
15573;SDS011;7888;46.748;8.102;2022-11-30T07:18:28;0.90;;;0.90;;
15573;SDS011;7888;46.748;8.102;2022-11-30T07:20:57;0.90;;;0.90;;
15573;SDS011;7888;46.748;8.102;2022-11-30T07:23:25;0.80;;;0.80;;
15573;SDS011;7888;46.748;8.102;2022-11-30T07:26:09;0.70;;;0.70;;
15573;SDS011;7888;46.748;8.102;2022-11-30T07:28:36;1.23;;;1.10;;
15573;SDS011;7888;46.748;8.102;2022-11-30T07:31:20;0.73;;;0.70;;
15573;SDS011;7888;46.748;8.102;2022-11-30T07:33:52;0.70;;;0.70;;
15573;SDS011;7888;46.748;8.102;2022-11-30T07:36:20;0.80;;;0.50;;
15573;SDS011;7888;46.748;8.102;2022-11-30T07:38:49;0.70;;;0.70;;
15573;SDS011;7888;46.748;8.102;2022-11-30T07:41:15;0.60;;;0.60;;
15573;SDS011;7888;46.748;8.102;2022-11-30T07:43:42;0.93;;;0.50;;
15573;SDS011;7888;46.748;8.102;2022-11-30T07:46:13;0.57;;;0.57;;
15573;SDS011;7888;46.748;8.102;2022-11-30T07:48:40;0.50;;;0.50;;
15573;SDS011;7888;46.748;8.102;2022-11-30T07:51:15;0.53;;;0.50;;
15573;SDS011;7888;46.748;8.102;2022-11-30T07:53:43;1.13;;;0.43;;
15573;SDS011;7888;46.748;8.102;2022-11-30T07:56:11;0.50;;;0.50;;
15573;SDS011;7888;46.748;8.102;2022-11-30T07:58:40;0.63;;;0.63;;
15573;SDS011;7888;46.748;8.102;2022-11-30T08:01:08;0.60;;;0.53;;
15573;SDS011;7888;46.748;8.102;2022-11-30T08:03:37;0.53;;;0.50;;
15573;SDS011;7888;46.748;8.102;2022-11-30T08:06:07;0.60;;;0.60;;
15573;SDS011;7888;46.748;8.102;2022-11-30T08:08:45;0.70;;;0.60;;
15573;SDS011;7888;46.748;8.102;2022-11-30T08:11:14;0.63;;;0.63;;
15573;SDS011;7888;46.748;8.102;2022-11-30T08:13:44;0.70;;;0.70;;
15573;SDS011;7888;46.748;8.102;2022-11-30T08:16:11;1.37;;;0.73;;
15573;SDS011;7888;46.748;8.102;2022-11-30T08:18:41;0.70;;;0.60;;
15573;SDS011;7888;46.748;8.102;2022-11-30T08:21:08;0.70;;;0.70;;
15573;SDS011;7888;46.748;8.102;2022-11-30T08:23:37;0.50;;;0.50;;
15573;SDS011;7888;46.748;8.102;2022-11-30T08:26:07;0.70;;;0.70;;
15573;SDS011;7888;46.748;8.102;2022-11-30T08:28:42;0.57;;;0.57;;
15573;SDS011;7888;46.748;8.102;2022-11-30T08:31:13;1.40;;;0.80;;
15573;SDS011;7888;46.748;8.102;2022-11-30T08:33:45;0.90;;;0.90;;
15573;SDS011;7888;46.748;8.102;2022-11-30T08:36:18;0.90;;;0.90;;
15573;SDS011;7888;46.748;8.102;2022-11-30T08:38:46;1.20;;;1.10;;
15573;SDS011;7888;46.748;8.102;2022-11-30T08:41:14;0.90;;;0.90;;
15573;SDS011;7888;46.748;8.102;2022-11-30T08:43:45;1.50;;;0.93;;
15573;SDS011;7888;46.748;8.102;2022-11-30T08:46:13;1.10;;;1.00;;
15573;SDS011;7888;46.748;8.102;2022-11-30T08:48:42;0.90;;;0.90;;
15573;SDS011;7888;46.748;8.102;2022-11-30T08:51:09;1.40;;;1.30;;
15573;SDS011;7888;46.748;8.102;2022-11-30T08:53:38;1.03;;;0.90;;
15573;SDS011;7888;46.748;8.102;2022-11-30T08:56:10;1.20;;;1.10;;
15573;SDS011;7888;46.748;8.102;2022-11-30T08:58:39;1.40;;;1.00;;
15573;SDS011;7888;46.748;8.102;2022-11-30T09:01:15;1.20;;;1.07;;
15573;SDS011;7888;46.748;8.102;2022-11-30T09:03:52;1.57;;;1.33;;
15573;SDS011;7888;46.748;8.102;2022-11-30T09:06:22;1.27;;;1.17;;
15573;SDS011;7888;46.748;8.102;2022-11-30T09:08:52;1.20;;;1.07;;
15573;SDS011;7888;46.748;8.102;2022-11-30T09:13:58;1.47;;;1.37;;
15573;SDS011;7888;46.748;8.102;2022-11-30T09:16:27;1.47;;;1.30;;
15573;SDS011;7888;46.748;8.102;2022-11-30T09:18:54;1.77;;;1.67;;
15573;SDS011;7888;46.748;8.102;2022-11-30T09:21:21;1.63;;;1.30;;
15573;SDS011;7888;46.748;8.102;2022-11-30T09:23:49;1.93;;;1.40;;
15573;SDS011;7888;46.748;8.102;2022-11-30T09:26:17;1.87;;;1.77;;
15573;SDS011;7888;46.748;8.102;2022-11-30T09:28:47;1.83;;;1.73;;
15573;SDS011;7888;46.748;8.102;2022-11-30T09:31:14;1.93;;;1.83;;
15573;SDS011;7888;46.748;8.102;2022-11-30T09:33:44;2.07;;;1.87;;
15573;SDS011;7888;46.748;8.102;2022-11-30T09:36:11;1.80;;;1.70;;
15573;SDS011;7888;46.748;8.102;2022-11-30T09:38:43;1.63;;;1.53;;
15573;SDS011;7888;46.748;8.102;2022-11-30T09:44:38;2.13;;;1.93;;
15573;SDS011;7888;46.748;8.102;2022-11-30T09:47:24;2.20;;;1.70;;
15573;SDS011;7888;46.748;8.102;2022-11-30T09:50:20;1.90;;;1.80;;
15573;SDS011;7888;46.748;8.102;2022-11-30T09:52:57;1.60;;;1.50;;
15573;SDS011;7888;46.748;8.102;2022-11-30T09:55:31;1.93;;;1.80;;
15573;SDS011;7888;46.748;8.102;2022-11-30T09:58:05;2.03;;;1.93;;
15573;SDS011;7888;46.748;8.102;2022-11-30T10:00:35;1.80;;;1.70;;
15573;SDS011;7888;46.748;8.102;2022-11-30T10:03:03;1.50;;;1.40;;
15573;SDS011;7888;46.748;8.102;2022-11-30T10:05:38;1.60;;;1.50;;
15573;SDS011;7888;46.748;8.102;2022-11-30T10:10:55;1.43;;;1.33;;
15573;SDS011;7888;46.748;8.102;2022-11-30T10:17:17;1.60;;;1.50;;
15573;SDS011;7888;46.748;8.102;2022-11-30T10:20:20;1.33;;;1.23;;
15573;SDS011;7888;46.748;8.102;2022-11-30T10:26:08;1.20;;;1.10;;
15573;SDS011;7888;46.748;8.102;2022-11-30T10:28:52;1.10;;;1.00;;
15573;SDS011;7888;46.748;8.102;2022-11-30T10:31:29;1.47;;;1.37;;
15573;SDS011;7888;46.748;8.102;2022-11-30T10:34:19;1.30;;;1.20;;
15573;SDS011;7888;46.748;8.102;2022-11-30T10:42:39;1.40;;;1.30;;
15573;SDS011;7888;46.748;8.102;2022-11-30T10:45:16;3.20;;;2.33;;
15573;SDS011;7888;46.748;8.102;2022-11-30T10:47:53;1.97;;;1.77;;
15573;SDS011;7888;46.748;8.102;2022-11-30T10:50:48;1.70;;;1.60;;
15573;SDS011;7888;46.748;8.102;2022-11-30T10:53:15;1.77;;;1.67;;
15573;SDS011;7888;46.748;8.102;2022-11-30T10:55:42;2.20;;;1.80;;
15573;SDS011;7888;46.748;8.102;2022-11-30T10:58:49;1.87;;;1.73;;
15573;SDS011;7888;46.748;8.102;2022-11-30T11:01:38;1.60;;;1.50;;
15573;SDS011;7888;46.748;8.102;2022-11-30T11:06:50;1.93;;;1.57;;
15573;SDS011;7888;46.748;8.102;2022-11-30T11:11:52;2.27;;;1.70;;
15573;SDS011;7888;46.748;8.102;2022-11-30T11:14:24;1.80;;;1.57;;
15573;SDS011;7888;46.748;8.102;2022-11-30T11:19:40;1.60;;;1.50;;
15573;SDS011;7888;46.748;8.102;2022-11-30T11:24:44;2.30;;;2.10;;
15573;SDS011;7888;46.748;8.102;2022-11-30T11:27:28;2.27;;;2.10;;
15573;SDS011;7888;46.748;8.102;2022-11-30T11:29:59;2.10;;;1.90;;
15573;SDS011;7888;46.748;8.102;2022-11-30T11:32:32;1.67;;;1.57;;
15573;SDS011;7888;46.748;8.102;2022-11-30T11:34:59;1.40;;;1.30;;
15573;SDS011;7888;46.748;8.102;2022-11-30T11:37:31;1.30;;;1.20;;
15573;SDS011;7888;46.748;8.102;2022-11-30T11:40:14;1.60;;;1.50;;
15573;SDS011;7888;46.748;8.102;2022-11-30T11:45:17;1.13;;;1.03;;
15573;SDS011;7888;46.748;8.102;2022-11-30T11:47:59;2.80;;;1.73;;
15573;SDS011;7888;46.748;8.102;2022-11-30T11:50:37;1.70;;;1.60;;
15573;SDS011;7888;46.748;8.102;2022-11-30T11:53:13;1.73;;;1.63;;
15573;SDS011;7888;46.748;8.102;2022-11-30T11:58:44;4.57;;;1.50;;
15573;SDS011;7888;46.748;8.102;2022-11-30T12:01:31;2.23;;;1.60;;
15573;SDS011;7888;46.748;8.102;2022-11-30T12:12:39;2.30;;;2.10;;
15573;SDS011;7888;46.748;8.102;2022-11-30T12:15:09;2.83;;;2.33;;
15573;SDS011;7888;46.748;8.102;2022-11-30T12:20:31;2.17;;;1.97;;
15573;SDS011;7888;46.748;8.102;2022-11-30T12:29:44;2.07;;;1.87;;
15573;SDS011;7888;46.748;8.102;2022-11-30T12:35:35;2.67;;;2.37;;
15573;SDS011;7888;46.748;8.102;2022-11-30T12:44:07;2.17;;;1.97;;
15573;SDS011;7888;46.748;8.102;2022-11-30T12:53:19;1.97;;;1.83;;
15573;SDS011;7888;46.748;8.102;2022-11-30T13:01:49;3.53;;;2.70;;
15573;SDS011;7888;46.748;8.102;2022-11-30T13:04:41;3.07;;;2.77;;
15573;SDS011;7888;46.748;8.102;2022-11-30T13:07:21;3.30;;;3.00;;
15573;SDS011;7888;46.748;8.102;2022-11-30T13:09:57;2.50;;;2.23;;
15573;SDS011;7888;46.748;8.102;2022-11-30T13:13:00;3.07;;;2.77;;
15573;SDS011;7888;46.748;8.102;2022-11-30T13:15:29;3.10;;;2.80;;
15573;SDS011;7888;46.748;8.102;2022-11-30T13:17:59;3.20;;;2.67;;
15573;SDS011;7888;46.748;8.102;2022-11-30T13:29:07;3.53;;;2.60;;
15573;SDS011;7888;46.748;8.102;2022-11-30T13:32:19;3.00;;;2.70;;
15573;SDS011;7888;46.748;8.102;2022-11-30T13:34:45;3.00;;;2.60;;
15573;SDS011;7888;46.748;8.102;2022-11-30T13:37:12;3.33;;;3.03;;
15573;SDS011;7888;46.748;8.102;2022-11-30T13:39:46;3.10;;;2.80;;
15573;SDS011;7888;46.748;8.102;2022-11-30T13:44:58;4.00;;;3.30;;
15573;SDS011;7888;46.748;8.102;2022-11-30T13:47:37;3.40;;;3.00;;
15573;SDS011;7888;46.748;8.102;2022-11-30T14:03:14;4.03;;;2.63;;
15573;SDS011;7888;46.748;8.102;2022-11-30T14:10:48;3.10;;;2.80;;
15573;SDS011;7888;46.748;8.102;2022-11-30T14:23:47;2.80;;;2.07;;
15573;SDS011;7888;46.748;8.102;2022-11-30T14:26:41;3.43;;;2.63;;
15573;SDS011;7888;46.748;8.102;2022-11-30T14:29:18;3.67;;;2.93;;
15573;SDS011;7888;46.748;8.102;2022-11-30T14:35:11;3.50;;;2.40;;
15573;SDS011;7888;46.748;8.102;2022-11-30T14:37:43;2.73;;;2.30;;
15573;SDS011;7888;46.748;8.102;2022-11-30T14:40:17;2.63;;;2.20;;
15573;SDS011;7888;46.748;8.102;2022-11-30T14:42:48;2.20;;;1.90;;
15573;SDS011;7888;46.748;8.102;2022-11-30T14:45:18;2.73;;;1.90;;
15573;SDS011;7888;46.748;8.102;2022-11-30T14:47:48;2.87;;;2.27;;
15573;SDS011;7888;46.748;8.102;2022-11-30T14:50:23;3.40;;;2.73;;
15573;SDS011;7888;46.748;8.102;2022-11-30T14:55:51;2.73;;;2.17;;
15573;SDS011;7888;46.748;8.102;2022-11-30T15:01:27;2.63;;;2.43;;
15573;SDS011;7888;46.748;8.102;2022-11-30T15:03:58;4.40;;;2.60;;
15573;SDS011;7888;46.748;8.102;2022-11-30T15:06:34;3.77;;;2.70;;
15573;SDS011;7888;46.748;8.102;2022-11-30T15:09:04;3.17;;;2.87;;
15573;SDS011;7888;46.748;8.102;2022-11-30T15:11:40;4.20;;;3.40;;
15573;SDS011;7888;46.748;8.102;2022-11-30T15:14:09;5.37;;;3.80;;
15573;SDS011;7888;46.748;8.102;2022-11-30T15:16:35;3.43;;;2.77;;
15573;SDS011;7888;46.748;8.102;2022-11-30T15:19:19;3.97;;;2.50;;
15573;SDS011;7888;46.748;8.102;2022-11-30T15:21:54;2.30;;;2.10;;
15573;SDS011;7888;46.748;8.102;2022-11-30T15:24:22;2.67;;;1.80;;
15573;SDS011;7888;46.748;8.102;2022-11-30T15:29:26;2.97;;;2.67;;
15573;SDS011;7888;46.748;8.102;2022-11-30T15:32:14;2.60;;;2.20;;
15573;SDS011;7888;46.748;8.102;2022-11-30T15:34:53;2.53;;;2.13;;
15573;SDS011;7888;46.748;8.102;2022-11-30T15:39:55;2.30;;;1.97;;
15573;SDS011;7888;46.748;8.102;2022-11-30T15:42:32;2.77;;;2.23;;
15573;SDS011;7888;46.748;8.102;2022-11-30T15:48:02;2.10;;;1.90;;
15573;SDS011;7888;46.748;8.102;2022-11-30T15:50:55;2.37;;;2.00;;
15573;SDS011;7888;46.748;8.102;2022-11-30T15:53:24;3.50;;;2.63;;
15573;SDS011;7888;46.748;8.102;2022-11-30T15:56:06;2.53;;;2.33;;
15573;SDS011;7888;46.748;8.102;2022-11-30T16:01:55;3.10;;;2.00;;
15573;SDS011;7888;46.748;8.102;2022-11-30T16:07:21;2.63;;;2.30;;
15573;SDS011;7888;46.748;8.102;2022-11-30T16:10:01;2.93;;;2.27;;
15573;SDS011;7888;46.748;8.102;2022-11-30T16:12:38;2.07;;;1.83;;
15573;SDS011;7888;46.748;8.102;2022-11-30T16:15:16;2.13;;;1.73;;
15573;SDS011;7888;46.748;8.102;2022-11-30T16:17:44;2.03;;;1.83;;
15573;SDS011;7888;46.748;8.102;2022-11-30T16:20:11;2.10;;;1.90;;
15573;SDS011;7888;46.748;8.102;2022-11-30T16:22:38;2.30;;;2.10;;
15573;SDS011;7888;46.748;8.102;2022-11-30T16:25:17;2.10;;;1.90;;
15573;SDS011;7888;46.748;8.102;2022-11-30T16:27:48;1.80;;;1.70;;
15573;SDS011;7888;46.748;8.102;2022-11-30T16:30:16;2.30;;;2.00;;
15573;SDS011;7888;46.748;8.102;2022-11-30T16:32:45;2.27;;;1.97;;
15573;SDS011;7888;46.748;8.102;2022-11-30T16:35:16;2.40;;;2.17;;
15573;SDS011;7888;46.748;8.102;2022-11-30T16:37:49;3.50;;;3.10;;
15573;SDS011;7888;46.748;8.102;2022-11-30T16:40:15;3.67;;;3.13;;
15573;SDS011;7888;46.748;8.102;2022-11-30T16:42:43;2.73;;;2.13;;
15573;SDS011;7888;46.748;8.102;2022-11-30T16:45:11;2.70;;;2.20;;
15573;SDS011;7888;46.748;8.102;2022-11-30T16:47:44;2.37;;;2.13;;
15573;SDS011;7888;46.748;8.102;2022-11-30T16:50:10;2.93;;;2.50;;
15573;SDS011;7888;46.748;8.102;2022-11-30T16:52:38;3.27;;;2.40;;
15573;SDS011;7888;46.748;8.102;2022-11-30T16:55:15;2.90;;;2.50;;
15573;SDS011;7888;46.748;8.102;2022-11-30T16:57:46;3.10;;;2.73;;
15573;SDS011;7888;46.748;8.102;2022-11-30T17:00:14;3.23;;;2.80;;
15573;SDS011;7888;46.748;8.102;2022-11-30T17:03:28;3.10;;;2.80;;
15573;SDS011;7888;46.748;8.102;2022-11-30T17:05:34;2.63;;;2.23;;
15573;SDS011;7888;46.748;8.102;2022-11-30T17:08:01;2.97;;;2.67;;
15573;SDS011;7888;46.748;8.102;2022-11-30T17:10:27;2.93;;;2.37;;
15573;SDS011;7888;46.748;8.102;2022-11-30T17:12:53;3.30;;;2.40;;
15573;SDS011;7888;46.748;8.102;2022-11-30T17:15:20;2.80;;;2.50;;
15573;SDS011;7888;46.748;8.102;2022-11-30T17:17:47;2.60;;;2.40;;
15573;SDS011;7888;46.748;8.102;2022-11-30T17:20:14;3.43;;;2.70;;
15573;SDS011;7888;46.748;8.102;2022-11-30T17:22:42;3.67;;;3.00;;
15573;SDS011;7888;46.748;8.102;2022-11-30T17:25:14;3.70;;;3.03;;
15573;SDS011;7888;46.748;8.102;2022-11-30T17:27:42;3.43;;;2.60;;
15573;SDS011;7888;46.748;8.102;2022-11-30T17:30:09;2.63;;;2.33;;
15573;SDS011;7888;46.748;8.102;2022-11-30T17:32:36;2.63;;;2.43;;
15573;SDS011;7888;46.748;8.102;2022-11-30T17:35:02;2.83;;;2.53;;
15573;SDS011;7888;46.748;8.102;2022-11-30T17:37:28;3.17;;;2.73;;
15573;SDS011;7888;46.748;8.102;2022-11-30T17:39:54;3.10;;;2.53;;
15573;SDS011;7888;46.748;8.102;2022-11-30T17:42:21;2.90;;;2.57;;
15573;SDS011;7888;46.748;8.102;2022-11-30T17:44:47;3.27;;;2.80;;
15573;SDS011;7888;46.748;8.102;2022-11-30T17:47:13;2.93;;;2.63;;
15573;SDS011;7888;46.748;8.102;2022-11-30T17:49:38;3.47;;;2.83;;
15573;SDS011;7888;46.748;8.102;2022-11-30T17:52:05;2.70;;;2.23;;
15573;SDS011;7888;46.748;8.102;2022-11-30T17:54:30;2.93;;;2.50;;
15573;SDS011;7888;46.748;8.102;2022-11-30T17:56:56;2.90;;;2.50;;
15573;SDS011;7888;46.748;8.102;2022-11-30T17:59:22;3.10;;;2.80;;
15573;SDS011;7888;46.748;8.102;2022-11-30T18:01:48;3.13;;;2.83;;
15573;SDS011;7888;46.748;8.102;2022-11-30T18:04:14;3.37;;;2.77;;
15573;SDS011;7888;46.748;8.102;2022-11-30T18:06:41;2.67;;;2.47;;